Time;durP1;ratioP1;P1;durP2;ratioP2;P2;SDS_P1;SDS_P2;PMS_P1;PMS_P2;Temp;Humidity;BMP_temperature;BMP_pressure;BME280_temperature;BME280_humidity;BME280_pressure;Samples;Min_cycle;Max_cycle;Signal;HPM_P1;HPM_P2
2022/07/12 00:00:21;;;;;;;;;5.33;4.00;;;;;;;;4902273;28;45483;-77
2022/07/12 00:02:46;;;;;;;;;3.75;3.75;;;;;;;;4898248;29;45499;-77
2022/07/12 00:05:11;;;;;;;;;3.75;3.75;;;;;;;;4903901;28;45493;-77
2022/07/12 00:07:37;;;;;;;;;4.00;3.00;;;;;;;;4899080;28;46435;-77
2022/07/12 00:10:03;;;;;;;;;4.75;3.00;;;;;;;;4901097;28;45529;-78
2022/07/12 00:12:28;;;;;;;;;3.25;3.25;;;;;;;;4900377;28;45445;-77
2022/07/12 00:14:54;;;;;;;;;5.00;5.00;;;;;;;;4899287;29;45512;-78
2022/07/12 00:17:19;;;;;;;;;4.00;4.00;;;;;;;;4899385;28;46258;-77
2022/07/12 00:19:45;;;;;;;;;6.00;6.00;;;;;;;;4900183;28;45360;-77
2022/07/12 00:22:11;;;;;;;;;6.00;6.00;;;;;;;;4899904;28;45538;-78
2022/07/12 00:24:36;;;;;;;;;8.00;6.00;;;;;;;;4900967;28;45546;-78
2022/07/12 00:27:01;;;;;;;;;9.00;9.00;;;;;;;;4901840;28;45469;-78
2022/07/12 00:29:26;;;;;;;;;9.00;9.00;;;;;;;;4896739;29;45281;-77
2022/07/12 00:31:51;;;;;;;;;12.00;9.00;;;;;;;;4902151;28;45415;-78
2022/07/12 00:34:17;;;;;;;;;8.67;7.00;;;;;;;;4893637;29;47488;-77
2022/07/12 00:36:42;;;;;;;;;6.67;6.00;;;;;;;;4903466;28;45367;-77
2022/07/12 00:39:07;;;;;;;;;9.00;7.00;;;;;;;;4895704;29;45236;-77
2022/07/12 00:41:32;;;;;;;;;6.00;6.00;;;;;;;;4901852;29;45383;-77
2022/07/12 00:43:57;;;;;;;;;7.00;6.00;;;;;;;;4896962;28;45300;-77
2022/07/12 00:46:23;;;;;;;;;7.00;7.00;;;;;;;;4901699;28;46472;-77
2022/07/12 00:48:48;;;;;;;;;3.33;3.33;;;;;;;;4896609;28;45304;-76
2022/07/12 00:51:13;;;;;;;;;8.00;6.33;;;;;;;;4902231;29;45304;-76
2022/07/12 00:53:39;;;;;;;;;5.00;4.33;;;;;;;;4897183;29;46013;-77
2022/07/12 00:56:05;;;;;;;;;7.00;7.00;;;;;;;;4901916;29;46337;-77
2022/07/12 00:58:31;;;;;;;;;5.67;5.67;;;;;;;;4896976;28;47012;-77
2022/07/12 01:00:57;;;;;;;;;4.00;4.00;;;;;;;;4902166;28;45447;-77
2022/07/12 01:03:22;;;;;;;;;5.00;5.00;;;;;;;;4898760;28;45367;-78
2022/07/12 01:05:47;;;;;;;;;3.67;3.67;;;;;;;;4901160;29;45714;-78
2022/07/12 01:08:14;;;;;;;;;3.00;3.00;;;;;;;;4897493;28;45422;-78
2022/07/12 01:10:40;;;;;;;;;6.33;5.00;;;;;;;;4902052;28;45233;-77
2022/07/12 01:13:05;;;;;;;;;4.00;4.00;;;;;;;;4899118;28;45412;-78
2022/07/12 01:15:30;;;;;;;;;4.33;4.33;;;;;;;;4901699;28;45848;-77
2022/07/12 01:17:56;;;;;;;;;2.00;2.00;;;;;;;;4898085;28;45298;-77
2022/07/12 01:20:22;;;;;;;;;4.00;4.00;;;;;;;;4899082;29;45458;-77
2022/07/12 01:22:54;;;;;;;;;3.33;3.33;;;;;;;;4897811;29;45189;-77
2022/07/12 01:25:19;;;;;;;;;5.00;2.33;;;;;;;;4898917;29;46199;-77
2022/07/12 01:27:45;;;;;;;;;6.00;4.00;;;;;;;;4897296;28;45439;-77
2022/07/12 01:30:10;;;;;;;;;4.00;4.00;;;;;;;;4901782;28;45460;-77
2022/07/12 01:32:35;;;;;;;;;5.00;4.00;;;;;;;;4895406;28;45521;-77
2022/07/12 01:35:04;;;;;;;;;4.00;4.00;;;;;;;;4898975;28;46945;-78
2022/07/12 01:37:41;;;;;;;;;4.00;3.00;;;;;;;;4897373;29;45411;-77
2022/07/12 01:40:07;;;;;;;;;5.33;4.33;;;;;;;;4897427;29;45267;-78
2022/07/12 01:42:32;;;;;;;;;4.00;4.00;;;;;;;;4894995;28;45464;-78
2022/07/12 01:44:58;;;;;;;;;3.67;3.67;;;;;;;;4899700;29;46546;-77
2022/07/12 01:47:25;;;;;;;;;3.33;3.33;;;;;;;;4896633;28;45355;-78
2022/07/12 01:49:51;;;;;;;;;2.00;2.00;;;;;;;;4897873;29;45458;-78
2022/07/12 01:52:17;;;;;;;;;3.00;3.00;;;;;;;;4893392;28;45573;-78
2022/07/12 01:54:42;;;;;;;;;4.67;4.67;;;;;;;;4897396;29;46981;-78
2022/07/12 01:57:08;;;;;;;;;3.33;3.33;;;;;;;;4898051;29;45415;-78
2022/07/12 01:59:33;;;;;;;;;6.00;5.00;;;;;;;;4896127;29;45365;-78
2022/07/12 02:01:59;;;;;;;;;4.67;3.33;;;;;;;;4901027;28;45521;-78
2022/07/12 02:04:24;;;;;;;;;3.67;3.33;;;;;;;;4895366;29;45619;-77
2022/07/12 02:06:49;;;;;;;;;4.00;4.00;;;;;;;;4902552;28;45415;-78
2022/07/12 02:09:14;;;;;;;;;3.00;2.33;;;;;;;;4892895;29;45463;-78
2022/07/12 02:11:40;;;;;;;;;2.67;2.67;;;;;;;;4900976;29;46740;-78
2022/07/12 02:14:06;;;;;;;;;3.00;3.00;;;;;;;;4893827;28;45376;-78
2022/07/12 02:16:31;;;;;;;;;3.00;3.00;;;;;;;;4898421;29;45396;-78
2022/07/12 02:18:57;;;;;;;;;4.33;4.33;;;;;;;;4893831;29;47056;-78
2022/07/12 02:21:22;;;;;;;;;5.67;4.00;;;;;;;;4901597;29;45667;-78
2022/07/12 02:23:47;;;;;;;;;3.67;3.67;;;;;;;;4893705;29;48395;-78
2022/07/12 02:26:12;;;;;;;;;5.00;4.00;;;;;;;;4901147;28;45177;-78
2022/07/12 02:28:38;;;;;;;;;3.33;3.33;;;;;;;;4896029;28;45434;-78
2022/07/12 02:31:05;;;;;;;;;3.33;3.33;;;;;;;;4899507;29;45540;-78
2022/07/12 02:33:30;;;;;;;;;4.00;4.00;;;;;;;;4894333;28;45628;-79
2022/07/12 02:35:55;;;;;;;;;6.00;6.00;;;;;;;;4899518;29;45352;-78
2022/07/12 02:38:21;;;;;;;;;6.00;5.00;;;;;;;;4893985;28;45426;-78
2022/07/12 02:40:52;;;;;;;;;5.00;5.00;;;;;;;;4900905;28;45229;-78
2022/07/12 02:43:18;;;;;;;;;4.67;4.67;;;;;;;;4894421;28;46679;-78
2022/07/12 02:45:43;;;;;;;;;5.00;5.00;;;;;;;;4900528;28;45488;-79
2022/07/12 02:48:10;;;;;;;;;6.00;5.00;;;;;;;;4897736;28;45371;-78
2022/07/12 02:50:35;;;;;;;;;5.00;5.00;;;;;;;;4902799;28;45719;-78
2022/07/12 02:53:01;;;;;;;;;4.33;4.33;;;;;;;;4899306;29;45449;-79
2022/07/12 02:55:26;;;;;;;;;5.67;4.00;;;;;;;;4901609;29;45457;-78
2022/07/12 02:57:51;;;;;;;;;4.00;4.00;;;;;;;;4898851;28;45431;-77
2022/07/12 03:00:16;;;;;;;;;5.00;3.67;;;;;;;;4903242;28;45411;-78
2022/07/12 03:02:41;;;;;;;;;4.67;4.67;;;;;;;;4897950;28;45649;-77
2022/07/12 03:05:07;;;;;;;;;6.00;6.00;;;;;;;;4899093;28;45328;-78
2022/07/12 03:07:32;;;;;;;;;4.67;4.33;;;;;;;;4897930;28;45252;-78
2022/07/12 03:09:57;;;;;;;;;6.00;6.00;;;;;;;;4902535;28;45538;-77
2022/07/12 03:12:23;;;;;;;;;6.00;5.67;;;;;;;;4899876;29;46313;-78
2022/07/12 03:14:49;;;;;;;;;5.33;5.33;;;;;;;;4900932;29;45458;-77
2022/07/12 03:17:14;;;;;;;;;5.67;4.33;;;;;;;;4901687;28;45270;-78
2022/07/12 03:19:39;;;;;;;;;4.67;4.67;;;;;;;;4899868;29;46146;-77
2022/07/12 03:22:04;;;;;;;;;8.00;7.33;;;;;;;;4885509;29;45526;-77
2022/07/12 03:24:29;;;;;;;;;8.00;8.00;;;;;;;;4898101;29;45319;-78
2022/07/12 03:26:55;;;;;;;;;8.33;7.67;;;;;;;;4902426;29;45583;-78
2022/07/12 03:29:20;;;;;;;;;9.00;8.33;;;;;;;;4898357;28;45432;-78
2022/07/12 03:31:45;;;;;;;;;10.33;8.00;;;;;;;;4905608;28;45555;-77
2022/07/12 03:34:10;;;;;;;;;9.67;9.00;;;;;;;;4896634;29;45318;-77
2022/07/12 03:36:36;;;;;;;;;12.33;8.33;;;;;;;;4904568;29;45376;-77
2022/07/12 03:39:01;;;;;;;;;9.00;8.00;;;;;;;;4895796;29;46086;-77
2022/07/12 03:41:26;;;;;;;;;8.00;8.00;;;;;;;;4902599;28;46073;-77
2022/07/12 03:43:51;;;;;;;;;9.33;8.00;;;;;;;;4896838;29;45548;-77
2022/07/12 03:46:17;;;;;;;;;7.33;7.33;;;;;;;;4903337;28;45371;-77
2022/07/12 03:48:42;;;;;;;;;11.33;10.00;;;;;;;;4896302;28;45457;-76
2022/07/12 03:51:07;;;;;;;;;10.00;10.00;;;;;;;;4903364;28;45469;-77
2022/07/12 03:53:32;;;;;;;;;11.33;8.33;;;;;;;;4894895;29;45475;-77
2022/07/12 03:55:57;;;;;;;;;10.67;10.00;;;;;;;;4903448;28;45407;-77
2022/07/12 03:58:22;;;;;;;;;10.33;9.67;;;;;;;;4894573;29;45598;-77
2022/07/12 04:00:48;;;;;;;;;7.00;6.67;;;;;;;;4904158;28;45477;-78
2022/07/12 04:03:13;;;;;;;;;11.67;11.67;;;;;;;;4897928;28;45543;-78
2022/07/12 04:05:38;;;;;;;;;7.33;6.33;;;;;;;;4904231;28;45593;-77
2022/07/12 04:08:04;;;;;;;;;7.33;7.00;;;;;;;;4896465;29;46980;-77
2022/07/12 04:10:29;;;;;;;;;7.00;7.00;;;;;;;;4900973;29;46939;-77
2022/07/12 04:12:54;;;;;;;;;6.67;6.67;;;;;;;;4897854;28;45431;-77
2022/07/12 04:15:20;;;;;;;;;7.00;7.00;;;;;;;;4902637;28;45342;-77
2022/07/12 04:17:45;;;;;;;;;8.00;8.00;;;;;;;;4895222;29;47053;-77
2022/07/12 04:20:10;;;;;;;;;7.67;7.67;;;;;;;;4902176;28;46554;-77
2022/07/12 04:22:36;;;;;;;;;8.33;8.33;;;;;;;;4899835;28;45223;-77
2022/07/12 04:25:01;;;;;;;;;6.00;6.00;;;;;;;;4902912;28;45506;-77
2022/07/12 04:27:27;;;;;;;;;9.67;8.33;;;;;;;;4899359;29;46131;-78
2022/07/12 04:29:52;;;;;;;;;8.67;7.67;;;;;;;;4900414;29;46554;-77
2022/07/12 04:32:18;;;;;;;;;8.00;7.00;;;;;;;;4899694;29;45348;-77
2022/07/12 04:34:43;;;;;;;;;7.67;7.67;;;;;;;;4898798;29;45565;-77
2022/07/12 04:37:09;;;;;;;;;7.67;7.00;;;;;;;;4902454;28;45309;-77
2022/07/12 04:39:35;;;;;;;;;7.67;7.00;;;;;;;;4898659;29;46426;-76
2022/07/12 04:42:00;;;;;;;;;6.67;6.67;;;;;;;;4902547;29;45366;-77
2022/07/12 04:44:25;;;;;;;;;9.00;6.00;;;;;;;;4904758;29;45268;-77
2022/07/12 04:46:50;;;;;;;;;10.00;9.00;;;;;;;;4901426;28;45610;-77
2022/07/12 04:49:16;;;;;;;;;9.00;6.33;;;;;;;;4902305;29;45555;-77
2022/07/12 04:51:41;;;;;;;;;8.00;6.67;;;;;;;;4894881;29;45316;-76
2022/07/12 04:54:07;;;;;;;;;8.33;6.67;;;;;;;;4895527;29;45285;-77
2022/07/12 04:56:32;;;;;;;;;11.67;9.00;;;;;;;;4894259;28;46010;-76
2022/07/12 04:58:57;;;;;;;;;9.67;8.33;;;;;;;;4894620;29;47222;-76
2022/07/12 05:01:23;;;;;;;;;6.67;6.00;;;;;;;;4893872;28;45481;-76
2022/07/12 05:03:48;;;;;;;;;10.67;9.00;;;;;;;;4893767;29;45518;-76
2022/07/12 05:06:13;;;;;;;;;9.00;8.00;;;;;;;;4892855;29;45450;-76
2022/07/12 05:08:39;;;;;;;;;7.67;7.67;;;;;;;;4894831;29;45726;-77
2022/07/12 05:11:04;;;;;;;;;10.67;8.33;;;;;;;;4893828;28;45417;-77
2022/07/12 05:13:29;;;;;;;;;9.33;8.33;;;;;;;;4893337;29;45343;-76
2022/07/12 05:15:55;;;;;;;;;10.67;9.00;;;;;;;;4892719;29;45421;-77
2022/07/12 05:18:20;;;;;;;;;8.33;7.33;;;;;;;;4894858;29;46632;-77
2022/07/12 05:20:45;;;;;;;;;8.67;7.33;;;;;;;;4894047;28;45434;-77
2022/07/12 05:23:10;;;;;;;;;9.67;8.00;;;;;;;;4893395;29;45555;-77
2022/07/12 05:25:36;;;;;;;;;6.67;6.33;;;;;;;;4893064;29;45673;-76
2022/07/12 05:28:01;;;;;;;;;9.33;8.00;;;;;;;;4888757;29;46190;-77
2022/07/12 05:30:26;;;;;;;;;8.67;7.00;;;;;;;;4892015;29;45394;-77
2022/07/12 05:32:52;;;;;;;;;10.33;7.00;;;;;;;;4893678;29;45554;-76
2022/07/12 05:35:17;;;;;;;;;8.67;5.33;;;;;;;;4895568;29;45468;-77
2022/07/12 05:37:42;;;;;;;;;10.33;10.33;;;;;;;;4894047;29;45385;-77
2022/07/12 05:40:07;;;;;;;;;8.33;7.00;;;;;;;;4892994;29;45439;-78
2022/07/12 05:42:33;;;;;;;;;10.00;8.67;;;;;;;;4891078;29;45231;-79
2022/07/12 05:44:58;;;;;;;;;7.67;7.00;;;;;;;;4889666;29;45777;-78
2022/07/12 05:47:23;;;;;;;;;10.00;7.33;;;;;;;;4901431;29;45423;-76
2022/07/12 05:49:48;;;;;;;;;9.00;7.33;;;;;;;;4903277;28;45482;-78
2022/07/12 05:55:14;;;;;;;;;6.67;6.67;;;;;;;;5097426;27;45468;-77
2022/07/12 05:57:39;;;;;;;;;12.00;10.67;;;;;;;;5097190;27;45502;-77
2022/07/12 06:00:05;;;;;;;;;9.00;8.00;;;;;;;;5096234;27;45278;-77
2022/07/12 06:02:30;;;;;;;;;5.33;4.33;;;;;;;;5075269;27;46381;-81
2022/07/12 06:04:55;;;;;;;;;8.33;8.33;;;;;;;;5091997;27;46226;-77
2022/07/12 06:07:20;;;;;;;;;9.67;7.67;;;;;;;;5095408;27;45146;-77
2022/07/12 06:09:46;;;;;;;;;9.00;9.00;;;;;;;;5096826;27;45242;-76
2022/07/12 06:12:12;;;;;;;;;7.67;7.67;;;;;;;;5095286;27;46217;-78
2022/07/12 06:14:37;;;;;;;;;8.00;8.00;;;;;;;;5095156;27;47171;-76
2022/07/12 06:17:02;;;;;;;;;8.00;8.00;;;;;;;;5089293;27;45331;-77
2022/07/12 06:19:28;;;;;;;;;6.33;6.33;;;;;;;;5078623;27;45453;-75
2022/07/12 06:21:53;;;;;;;;;7.33;7.00;;;;;;;;5090634;27;45312;-81
2022/07/12 06:24:18;;;;;;;;;6.67;6.00;;;;;;;;5076190;27;45240;-80
2022/07/12 06:26:43;;;;;;;;;8.00;6.00;;;;;;;;5075661;28;45358;-80
2022/07/12 06:29:08;;;;;;;;;7.00;7.00;;;;;;;;5077288;27;45236;-78
2022/07/12 06:31:34;;;;;;;;;9.33;8.00;;;;;;;;5075473;27;45644;-78
2022/07/12 06:33:59;;;;;;;;;8.00;8.00;;;;;;;;5072325;27;47968;-76
2022/07/12 06:36:24;;;;;;;;;8.67;8.33;;;;;;;;5074243;27;46394;-74
2022/07/12 06:38:50;;;;;;;;;8.00;6.00;;;;;;;;5073691;28;45292;-75
2022/07/12 06:41:15;;;;;;;;;7.00;7.00;;;;;;;;5074716;28;45431;-75
2022/07/12 06:43:40;;;;;;;;;6.67;6.67;;;;;;;;5076796;27;46293;-76
2022/07/12 06:46:05;;;;;;;;;7.00;6.00;;;;;;;;5078264;27;45492;-76
2022/07/12 06:48:30;;;;;;;;;7.00;7.00;;;;;;;;5073664;28;45477;-76
2022/07/12 06:50:56;;;;;;;;;12.33;8.00;;;;;;;;5072378;27;45861;-75
2022/07/12 06:53:21;;;;;;;;;8.33;8.33;;;;;;;;5081594;27;45371;-76
2022/07/12 06:55:46;;;;;;;;;11.67;7.00;;;;;;;;5094396;27;45402;-75
2022/07/12 06:58:11;;;;;;;;;9.67;7.67;;;;;;;;5094614;27;45477;-75
2022/07/12 07:00:37;;;;;;;;;9.33;7.67;;;;;;;;5094670;27;45466;-75
2022/07/12 07:03:05;;;;;;;;;6.33;6.33;;;;;;;;5093556;27;46633;-75
2022/07/12 07:05:30;;;;;;;;;8.33;6.67;;;;;;;;5069702;27;45276;-76
2022/07/12 07:07:55;;;;;;;;;7.00;5.67;;;;;;;;5066686;28;45311;-75
2022/07/12 07:10:20;;;;;;;;;7.67;7.67;;;;;;;;5062750;28;45494;-75
2022/07/12 07:12:45;;;;;;;;;7.67;7.67;;;;;;;;5081020;27;45376;-75
2022/07/12 07:15:13;;;;;;;;;8.33;8.00;;;;;;;;5081448;28;45311;-76
2022/07/12 07:17:39;;;;;;;;;10.75;8.75;;;;;;;;5081589;28;45697;-75
2022/07/12 07:20:04;;;;;;;;;6.75;6.75;;;;;;;;5081710;28;45566;-75
2022/07/12 07:22:29;;;;;;;;;10.00;8.25;;;;;;;;5063246;28;46928;-75
2022/07/12 07:24:54;;;;;;;;;10.00;7.25;;;;;;;;5081524;28;45295;-75
2022/07/12 07:27:20;;;;;;;;;7.75;6.50;;;;;;;;5081652;28;45458;-75
2022/07/12 07:32:29;;;;;;;;;8.00;8.00;;;;;;;;5081033;28;45232;-77
2022/07/12 07:34:54;;;;;;;;;9.50;6.75;;;;;;;;5080837;27;45427;-76
2022/07/12 07:37:19;;;;;;;;;11.25;8.00;;;;;;;;5083639;27;45359;-72
2022/07/12 07:39:44;;;;;;;;;7.25;7.00;;;;;;;;5101612;27;45524;-73
2022/07/12 07:42:10;;;;;;;;;7.25;7.00;;;;;;;;5096724;27;45353;-73
2022/07/12 07:44:35;;;;;;;;;7.25;7.25;;;;;;;;5061949;27;45268;-72
2022/07/12 07:47:00;;;;;;;;;8.75;7.25;;;;;;;;5081913;27;45299;-72
2022/07/12 07:49:26;;;;;;;;;8.50;8.00;;;;;;;;5080379;28;45476;-72
2022/07/12 07:51:51;;;;;;;;;8.50;7.25;;;;;;;;5082913;27;45497;-72
2022/07/12 07:54:16;;;;;;;;;9.25;6.50;;;;;;;;5080276;28;45297;-72
2022/07/12 07:56:41;;;;;;;;;12.50;9.75;;;;;;;;5083110;27;45329;-73
2022/07/12 07:59:07;;;;;;;;;12.75;10.25;;;;;;;;5101262;27;45457;-73
2022/07/12 08:01:45;;;;;;;;;15.75;11.00;;;;;;;;5100856;27;46469;-72
2022/07/12 08:04:10;;;;;;;;;6.80;6.00;;;;;;;;5101638;27;45247;-72
2022/07/12 08:06:36;;;;;;;;;7.50;7.50;;;;;;;;5082963;27;45286;-72
2022/07/12 08:09:01;;;;;;;;;9.75;9.00;;;;;;;;5082707;27;45926;-73
2022/07/12 08:11:26;;;;;;;;;8.75;7.75;;;;;;;;5100830;27;46433;-72
2022/07/12 08:13:52;;;;;;;;;8.75;8.00;;;;;;;;5101213;27;45213;-73
2022/07/12 08:16:17;;;;;;;;;6.75;6.50;;;;;;;;5075803;27;45508;-73
2022/07/12 08:18:42;;;;;;;;;8.00;7.50;;;;;;;;5078336;27;45569;-73
2022/07/12 08:21:07;;;;;;;;;8.25;6.50;;;;;;;;5080118;28;46384;-73
2022/07/12 08:23:32;;;;;;;;;8.75;7.50;;;;;;;;5080606;28;45277;-73
2022/07/12 08:25:58;;;;;;;;;9.25;8.75;;;;;;;;5062329;28;45363;-72
2022/07/12 08:28:23;;;;;;;;;6.00;6.00;;;;;;;;5061862;28;45503;-72
2022/07/12 08:30:48;;;;;;;;;9.00;7.50;;;;;;;;5061540;28;46537;-72
2022/07/12 08:33:13;;;;;;;;;8.50;7.00;;;;;;;;5080132;28;45301;-72
2022/07/12 08:35:39;;;;;;;;;5.75;5.75;;;;;;;;5062165;28;45261;-71
2022/07/12 08:38:04;;;;;;;;;6.75;6.75;;;;;;;;5061835;28;45873;-71
2022/07/12 08:40:29;;;;;;;;;6.00;6.00;;;;;;;;5079467;28;45609;-71
2022/07/12 08:42:56;;;;;;;;;7.00;6.00;;;;;;;;5079960;27;45402;-71
2022/07/12 08:45:21;;;;;;;;;7.00;7.00;;;;;;;;5079596;28;45331;-71
2022/07/12 08:47:47;;;;;;;;;6.00;5.25;;;;;;;;5080175;28;45391;-71
2022/07/12 08:50:13;;;;;;;;;5.25;5.25;;;;;;;;5061254;28;47433;-71
2022/07/12 08:52:46;;;;;;;;;7.80;5.40;;;;;;;;5079950;28;45343;-71
2022/07/12 08:55:23;;;;;;;;;6.40;6.00;;;;;;;;5061721;28;45287;-71
2022/07/12 08:57:49;;;;;;;;;6.20;5.60;;;;;;;;5079999;28;45299;-72
2022/07/12 09:00:15;;;;;;;;;9.20;6.00;;;;;;;;5079398;28;45671;-72
2022/07/12 09:02:45;;;;;;;;;4.75;3.50;;;;;;;;5061462;28;45629;-71
2022/07/12 09:05:11;;;;;;;;;3.40;3.40;;;;;;;;5078967;28;45285;-71
2022/07/12 09:07:36;;;;;;;;;4.50;4.50;;;;;;;;5061425;28;46638;-71
2022/07/12 09:10:05;;;;;;;;;3.00;2.25;;;;;;;;5078993;28;46531;-71
2022/07/12 09:12:30;;;;;;;;;0.00;0.00;;;;;;;;5080393;27;45402;-71
2022/07/12 09:14:58;;;;;;;;;2.50;1.75;;;;;;;;5081080;27;45762;-71
2022/07/12 09:17:23;;;;;;;;;1.60;1.60;;;;;;;;5078342;27;45421;-71
2022/07/12 09:19:55;;;;;;;;;3.75;3.00;;;;;;;;5079134;28;45459;-73
2022/07/12 09:22:21;;;;;;;;;5.20;4.00;;;;;;;;5092062;27;45259;-73
2022/07/12 09:24:46;;;;;;;;;5.25;3.50;;;;;;;;5100037;27;45782;-71
2022/07/12 09:27:12;;;;;;;;;4.50;2.00;;;;;;;;5078640;28;45640;-72
2022/07/12 09:29:48;;;;;;;;;2.00;2.00;;;;;;;;5073777;28;46121;-72
2022/07/12 09:37:41;;;;;;;;;3.60;3.60;;;;;;;;5079286;28;45288;-72
2022/07/12 09:40:07;;;;;;;;;4.00;4.00;;;;;;;;5060846;28;47910;-72
2022/07/12 09:42:33;;;;;;;;;3.00;3.00;;;;;;;;5060770;28;45200;-72
2022/07/12 09:45:00;;;;;;;;;2.00;2.00;;;;;;;;5078696;28;45207;-71
2022/07/12 09:47:26;;;;;;;;;2.00;2.00;;;;;;;;5080449;27;45462;-73
2022/07/12 09:49:52;;;;;;;;;3.20;3.00;;;;;;;;5091509;27;45398;-71
2022/07/12 09:52:21;;;;;;;;;5.00;3.25;;;;;;;;5099608;27;45365;-72
2022/07/12 09:54:49;;;;;;;;;4.60;4.60;;;;;;;;5096630;27;45243;-71
2022/07/12 09:57:33;;;;;;;;;3.60;2.60;;;;;;;;5060247;28;45940;-72
2022/07/12 09:59:59;;;;;;;;;3.00;3.00;;;;;;;;5060125;28;47960;-72
2022/07/12 10:02:25;;;;;;;;;3.00;3.00;;;;;;;;5078315;27;45414;-72
2022/07/12 10:04:50;;;;;;;;;3.00;3.00;;;;;;;;5079367;27;45279;-72
2022/07/12 10:07:16;;;;;;;;;4.25;4.25;;;;;;;;5078703;28;45415;-73
2022/07/12 10:09:46;;;;;;;;;4.00;4.00;;;;;;;;5073063;27;46462;-72
2022/07/12 10:12:12;;;;;;;;;5.80;3.80;;;;;;;;5078849;28;45335;-73
2022/07/12 10:14:38;;;;;;;;;4.00;3.00;;;;;;;;5059983;28;45339;-73
2022/07/12 10:17:08;;;;;;;;;1.75;1.75;;;;;;;;5078581;27;45261;-72
2022/07/12 10:19:35;;;;;;;;;4.40;3.40;;;;;;;;5060506;28;46163;-73
2022/07/12 10:22:01;;;;;;;;;4.00;4.00;;;;;;;;5079047;28;45334;-72
2022/07/12 10:24:32;;;;;;;;;4.00;3.00;;;;;;;;5079022;28;45284;-71
2022/07/12 10:27:19;;;;;;;;;4.60;3.00;;;;;;;;5060896;28;45564;-72
2022/07/12 10:29:45;;;;;;;;;4.60;4.60;;;;;;;;5048226;28;47686;-74
2022/07/12 10:32:24;;;;;;;;;1.80;1.80;;;;;;;;5078556;28;45340;-72
2022/07/12 10:34:57;;;;;;;;;1.00;1.00;;;;;;;;5079139;27;45240;-73
2022/07/12 10:37:22;;;;;;;;;4.00;4.00;;;;;;;;5060030;28;46178;-72
2022/07/12 10:40:07;;;;;;;;;2.75;2.75;;;;;;;;5060749;28;47931;-72
2022/07/12 10:42:32;;;;;;;;;3.00;3.00;;;;;;;;5063798;28;45318;-72
2022/07/12 10:45:08;;;;;;;;;3.00;3.00;;;;;;;;5082528;28;45466;-72
2022/07/12 10:47:52;;;;;;;;;3.80;3.40;;;;;;;;5082071;27;45313;-71
2022/07/12 10:50:17;;;;;;;;;4.60;2.80;;;;;;;;5065412;27;47070;-73
2022/07/12 10:52:43;;;;;;;;;3.00;3.00;;;;;;;;5084193;27;45375;-72
2022/07/12 10:55:14;;;;;;;;;3.75;3.75;;;;;;;;5096444;27;45287;-71
2022/07/12 10:57:43;;;;;;;;;2.60;2.60;;;;;;;;5082404;28;45413;-72
2022/07/12 11:00:09;;;;;;;;;4.60;3.20;;;;;;;;5081782;28;45383;-71
2022/07/12 11:02:34;;;;;;;;;3.00;2.60;;;;;;;;5063348;28;45291;-72
2022/07/12 11:05:00;;;;;;;;;4.75;3.75;;;;;;;;5082158;28;45259;-71
2022/07/12 11:07:25;;;;;;;;;2.00;2.00;;;;;;;;5080388;28;45552;-72
2022/07/12 11:09:54;;;;;;;;;3.00;3.00;;;;;;;;5062779;28;47836;-72
2022/07/12 11:12:19;;;;;;;;;3.20;3.20;;;;;;;;5063033;28;45675;-73
2022/07/12 11:14:50;;;;;;;;;2.00;2.00;;;;;;;;5081045;28;45373;-72
2022/07/12 11:17:19;;;;;;;;;3.00;3.00;;;;;;;;5081324;28;45794;-72
2022/07/12 11:19:45;;;;;;;;;2.40;2.40;;;;;;;;5080392;27;46518;-72
2022/07/12 11:22:11;;;;;;;;;3.00;3.00;;;;;;;;5062824;28;45614;-72
2022/07/12 11:24:36;;;;;;;;;4.00;4.00;;;;;;;;5082815;27;45479;-72
2022/07/12 11:27:01;;;;;;;;;4.00;3.75;;;;;;;;5080880;27;45487;-72
2022/07/12 11:29:27;;;;;;;;;4.00;3.25;;;;;;;;5080672;27;47234;-72
2022/07/12 11:32:06;;;;;;;;;4.00;4.00;;;;;;;;5081412;27;45179;-72
2022/07/12 11:34:35;;;;;;;;;3.80;3.80;;;;;;;;5082030;27;45414;-73
2022/07/12 11:37:01;;;;;;;;;3.00;3.00;;;;;;;;5080667;28;45613;-72
2022/07/12 11:39:30;;;;;;;;;4.20;3.00;;;;;;;;5064320;28;47074;-73
2022/07/12 11:41:58;;;;;;;;;3.80;3.00;;;;;;;;5081273;27;45404;-73
2022/07/12 11:44:43;;;;;;;;;5.00;4.00;;;;;;;;5078462;28;45371;-73
2022/07/12 11:47:08;;;;;;;;;26.20;25.00;;;;;;;;5061273;28;45890;-73
2022/07/12 11:49:34;;;;;;;;;5.00;4.00;;;;;;;;5082603;27;46059;-72
2022/07/12 11:51:59;;;;;;;;;4.00;4.00;;;;;;;;5080926;28;45308;-80
2022/07/12 11:54:25;;;;;;;;;6.75;3.00;;;;;;;;5082170;27;45285;-83
2022/07/12 11:57:03;;;;;;;;;8.60;5.40;;;;;;;;5085441;27;45660;-88
2022/07/12 11:59:28;;;;;;;;;5.60;4.00;;;;;;;;5103023;27;46307;-86
2022/07/12 12:02:04;;;;;;;;;2.50;1.50;;;;;;;;5102693;27;45169;-89
2022/07/12 12:04:29;;;;;;;;;3.00;3.00;;;;;;;;5083747;27;45279;-77
2022/07/12 12:06:54;;;;;;;;;4.25;4.25;;;;;;;;5072805;27;45482;-79
2022/07/12 12:09:19;;;;;;;;;3.75;3.75;;;;;;;;5082745;27;46236;-78
2022/07/12 12:11:45;;;;;;;;;4.00;4.00;;;;;;;;5086620;27;45260;-78
2022/07/12 12:14:10;;;;;;;;;3.00;3.00;;;;;;;;5066553;28;45652;-80
2022/07/12 12:16:35;;;;;;;;;4.00;4.00;;;;;;;;5079667;28;45549;-76
2022/07/12 12:19:01;;;;;;;;;9.50;9.50;;;;;;;;5080902;28;46622;-77
2022/07/12 12:21:28;;;;;;;;;5.50;4.75;;;;;;;;5062506;28;45331;-76
2022/07/12 12:24:08;;;;;;;;;4.40;3.40;;;;;;;;5062673;28;45264;-77
2022/07/12 12:26:33;;;;;;;;;5.20;4.20;;;;;;;;5083191;27;47089;-76
2022/07/12 12:29:01;;;;;;;;;4.50;3.50;;;;;;;;5080547;28;46710;-77
2022/07/12 12:31:27;;;;;;;;;3.40;3.40;;;;;;;;5080668;28;45507;-77
2022/07/12 12:33:56;;;;;;;;;3.00;3.00;;;;;;;;5080783;28;45243;-77
2022/07/12 12:36:22;;;;;;;;;3.60;3.60;;;;;;;;5062517;28;46174;-76
2022/07/12 12:38:52;;;;;;;;;6.20;5.60;;;;;;;;5062436;28;46875;-78
2022/07/12 12:41:17;;;;;;;;;5.80;4.80;;;;;;;;5081209;28;45304;-77
2022/07/12 12:43:44;;;;;;;;;4.00;4.00;;;;;;;;5080400;28;45240;-76
2022/07/12 12:46:10;;;;;;;;;3.20;3.20;;;;;;;;5080164;28;45498;-75
2022/07/12 12:48:35;;;;;;;;;3.00;3.00;;;;;;;;5079836;28;46262;-78
2022/07/12 12:51:05;;;;;;;;;2.75;2.75;;;;;;;;5079878;28;45402;-75
2022/07/12 12:53:30;;;;;;;;;3.40;3.40;;;;;;;;5063707;27;45529;-76
2022/07/12 12:55:56;;;;;;;;;3.00;2.25;;;;;;;;5075516;28;46200;-79
2022/07/12 12:58:24;;;;;;;;;4.00;3.25;;;;;;;;5080236;28;45444;-80
2022/07/12 13:00:51;;;;;;;;;2.20;1.20;;;;;;;;5080501;28;45490;-81
2022/07/12 13:03:21;;;;;;;;;2.60;2.60;;;;;;;;5079599;28;45241;-78
2022/07/12 13:05:47;;;;;;;;;4.00;4.00;;;;;;;;5078129;28;45253;-79
2022/07/12 13:08:13;;;;;;;;;3.00;3.00;;;;;;;;5079662;28;46585;-78
2022/07/12 13:10:39;;;;;;;;;3.00;3.00;;;;;;;;5079530;27;45442;-80
2022/07/12 13:13:05;;;;;;;;;1.60;1.60;;;;;;;;5059672;27;45645;-80
2022/07/12 13:15:30;;;;;;;;;3.20;3.20;;;;;;;;5072979;27;45767;-80
2022/07/12 13:17:56;;;;;;;;;6.00;4.00;;;;;;;;5073052;28;46461;-80
2022/07/12 13:20:23;;;;;;;;;5.25;4.00;;;;;;;;5073671;28;45577;-81
2022/07/12 13:22:48;;;;;;;;;3.60;3.20;;;;;;;;5073442;27;45442;-83
2022/07/12 13:25:14;;;;;;;;;3.75;3.00;;;;;;;;5075508;28;45435;-80
2022/07/12 13:27:39;;;;;;;;;5.40;2.40;;;;;;;;5075236;28;45541;-79
2022/07/12 13:30:07;;;;;;;;;10.50;6.00;;;;;;;;5073593;28;45323;-79
2022/07/12 13:32:32;;;;;;;;;5.60;4.00;;;;;;;;5073770;28;45591;-82
2022/07/12 13:34:59;;;;;;;;;3.00;3.00;;;;;;;;5075370;28;45578;-82
2022/07/12 13:37:24;;;;;;;;;2.00;2.00;;;;;;;;5082668;27;46450;-82
2022/07/12 13:42:33;;;;;;;;;4.80;4.60;;;;;;;;5077378;27;45569;-80
2022/07/12 13:44:58;;;;;;;;;4.25;2.25;;;;;;;;5075842;28;45445;-80
2022/07/12 13:47:24;;;;;;;;;3.00;3.00;;;;;;;;5057034;28;47723;-80
2022/07/12 13:49:49;;;;;;;;;1.50;1.50;;;;;;;;5075781;28;45411;-82
2022/07/12 13:52:15;;;;;;;;;3.00;3.00;;;;;;;;5059481;28;45464;-82
2022/07/12 13:54:40;;;;;;;;;5.00;3.00;;;;;;;;5062252;28;45438;-81
2022/07/12 13:57:05;;;;;;;;;3.25;2.75;;;;;;;;5082062;27;46605;-83
2022/07/12 13:59:31;;;;;;;;;3.00;3.00;;;;;;;;5079803;28;45265;-80
2022/07/12 14:01:56;;;;;;;;;4.00;2.00;;;;;;;;5044767;28;45355;-81
2022/07/12 14:04:21;;;;;;;;;3.00;3.00;;;;;;;;5073455;28;45421;-82
2022/07/12 14:06:48;;;;;;;;;3.00;2.00;;;;;;;;5053369;28;47136;-82
2022/07/12 14:09:14;;;;;;;;;1.20;1.20;;;;;;;;5079809;27;45562;-84
2022/07/12 14:11:39;;;;;;;;;2.25;2.25;;;;;;;;5080746;27;45386;-86
2022/07/12 14:14:04;;;;;;;;;2.00;2.00;;;;;;;;5077799;28;46244;-81
2022/07/12 14:16:30;;;;;;;;;4.75;1.50;;;;;;;;5077676;27;45524;-83
2022/07/12 14:18:55;;;;;;;;;1.25;1.00;;;;;;;;5079723;28;45442;-85
2022/07/12 14:21:20;;;;;;;;;2.00;2.00;;;;;;;;5080192;27;45755;-82
2022/07/12 14:23:45;;;;;;;;;3.75;2.00;;;;;;;;5079657;27;45697;-84
2022/07/12 14:26:11;;;;;;;;;2.75;1.75;;;;;;;;5079857;28;45696;-83
2022/07/12 14:28:36;;;;;;;;;2.00;2.00;;;;;;;;5079021;28;45470;-82
2022/07/12 14:31:02;;;;;;;;;2.50;2.50;;;;;;;;5058360;28;45425;-84
2022/07/12 14:33:28;;;;;;;;;1.60;1.60;;;;;;;;5056447;28;46164;-84
2022/07/12 14:35:53;;;;;;;;;4.75;1.75;;;;;;;;5059386;28;47897;-83
2022/07/12 14:38:18;;;;;;;;;2.00;2.00;;;;;;;;5078286;28;45457;-82
2022/07/12 14:40:43;;;;;;;;;2.00;2.00;;;;;;;;5077188;27;46570;-80
2022/07/12 14:43:09;;;;;;;;;3.00;3.00;;;;;;;;5075619;27;45410;-82
2022/07/12 14:45:34;;;;;;;;;2.50;2.00;;;;;;;;5059225;28;46570;-81
2022/07/12 14:47:59;;;;;;;;;2.25;2.25;;;;;;;;5075773;27;45419;-82